sensor_id;sensor_type;location;lat;lon;timestamp;pressure;altitude;pressure_sealevel;temperature;humidity
45793;BME280;31495;42.740;22.908;2023-11-18T00:00:57;92355.28;;;3.34;88.32
45793;BME280;31495;42.740;22.908;2023-11-18T00:01:57;92218.38;;;2.46;88.50
45793;BME280;31495;42.740;22.908;2023-11-18T00:02:57;92337.94;;;3.29;88.86
45793;BME280;31495;42.740;22.908;2023-11-18T00:03:57;92345.25;;;3.32;88.44
45793;BME280;31495;42.740;22.908;2023-11-18T00:04:57;92359.13;;;3.44;88.33
45793;BME280;31495;42.740;22.908;2023-11-18T00:05:57;92354.38;;;3.41;88.30
45793;BME280;31495;42.740;22.908;2023-11-18T00:06:57;92313.25;;;3.15;88.12
45793;BME280;31495;42.740;22.908;2023-11-18T00:07:58;92352.81;;;3.47;88.44
45793;BME280;31495;42.740;22.908;2023-11-18T00:08:58;92365.88;;;3.59;87.81
45793;BME280;31495;42.740;22.908;2023-11-18T00:09:57;92274.69;;;2.88;87.72
45793;BME280;31495;42.740;22.908;2023-11-18T00:10:57;92296.84;;;3.02;87.77
45793;BME280;31495;42.740;22.908;2023-11-18T00:11:57;92287.03;;;3.06;87.83
45793;BME280;31495;42.740;22.908;2023-11-18T00:12:57;92208.66;;;2.63;87.50
45793;BME280;31495;42.740;22.908;2023-11-18T00:13:57;92337.47;;;3.47;87.45
45793;BME280;31495;42.740;22.908;2023-11-18T00:14:58;92323.19;;;3.31;86.87
45793;BME280;31495;42.740;22.908;2023-11-18T00:15:58;92217.88;;;2.57;86.79
45793;BME280;31495;42.740;22.908;2023-11-18T00:16:58;92181.22;;;2.22;86.57
45793;BME280;31495;42.740;22.908;2023-11-18T00:17:58;92314.53;;;3.04;87.17
45793;BME280;31495;42.740;22.908;2023-11-18T00:18:59;92360.94;;;3.29;87.53
45793;BME280;31495;42.740;22.908;2023-11-18T00:19:58;92223.03;;;2.43;87.10
45793;BME280;31495;42.740;22.908;2023-11-18T00:20:59;92321.63;;;3.02;87.30
45793;BME280;31495;42.740;22.908;2023-11-18T00:21:58;92286.50;;;2.89;87.73
45793;BME280;31495;42.740;22.908;2023-11-18T00:22:58;92333.91;;;3.20;87.64
45793;BME280;31495;42.740;22.908;2023-11-18T00:23:57;92256.53;;;2.76;87.44
45793;BME280;31495;42.740;22.908;2023-11-18T00:24:58;92350.22;;;3.40;87.70
45793;BME280;31495;42.740;22.908;2023-11-18T00:25:58;92349.63;;;3.38;88.09
45793;BME280;31495;42.740;22.908;2023-11-18T00:26:58;92218.88;;;2.63;87.55
45793;BME280;31495;42.740;22.908;2023-11-18T00:27:59;92354.91;;;3.37;87.47
45793;BME280;31495;42.740;22.908;2023-11-18T00:28:59;92336.09;;;3.23;86.67
45793;BME280;31495;42.740;22.908;2023-11-18T00:30:00;92343.91;;;3.36;86.96
45793;BME280;31495;42.740;22.908;2023-11-18T00:30:59;92295.56;;;2.91;86.82
45793;BME280;31495;42.740;22.908;2023-11-18T00:32:00;92330.91;;;3.09;86.65
45793;BME280;31495;42.740;22.908;2023-11-18T00:32:59;92366.03;;;3.50;87.12
45793;BME280;31495;42.740;22.908;2023-11-18T00:33:59;92271.06;;;2.97;86.12
45793;BME280;31495;42.740;22.908;2023-11-18T00:34:59;92348.81;;;3.38;86.68
45793;BME280;31495;42.740;22.908;2023-11-18T00:36:00;92371.78;;;3.53;86.68
45793;BME280;31495;42.740;22.908;2023-11-18T00:36:59;92288.75;;;2.99;86.44
45793;BME280;31495;42.740;22.908;2023-11-18T00:38:00;92351.63;;;3.43;85.78
45793;BME280;31495;42.740;22.908;2023-11-18T00:39:00;92368.63;;;3.57;86.19
45793;BME280;31495;42.740;22.908;2023-11-18T00:40:00;92274.03;;;3.01;85.37
45793;BME280;31495;42.740;22.908;2023-11-18T00:41:00;92178.97;;;2.34;85.40
45793;BME280;31495;42.740;22.908;2023-11-18T00:42:00;92344.97;;;3.48;86.31
45793;BME280;31495;42.740;22.908;2023-11-18T00:43:00;92359.75;;;3.53;86.08
45793;BME280;31495;42.740;22.908;2023-11-18T00:44:00;92358.53;;;3.49;86.32
45793;BME280;31495;42.740;22.908;2023-11-18T00:45:00;92296.69;;;3.10;86.46
45793;BME280;31495;42.740;22.908;2023-11-18T00:46:00;92297.41;;;3.26;86.79
45793;BME280;31495;42.740;22.908;2023-11-18T00:47:00;92281.00;;;3.13;86.83
45793;BME280;31495;42.740;22.908;2023-11-18T00:48:01;92355.09;;;3.63;86.13
45793;BME280;31495;42.740;22.908;2023-11-18T00:49:01;92363.31;;;3.59;86.13
45793;BME280;31495;42.740;22.908;2023-11-18T00:50:01;92379.94;;;3.70;85.89
45793;BME280;31495;42.740;22.908;2023-11-18T00:51:01;92379.63;;;3.79;85.73
45793;BME280;31495;42.740;22.908;2023-11-18T00:52:02;92384.03;;;3.92;84.60
45793;BME280;31495;42.740;22.908;2023-11-18T00:53:02;92272.72;;;3.11;84.49
45793;BME280;31495;42.740;22.908;2023-11-18T00:54:02;92384.97;;;3.84;84.54
45793;BME280;31495;42.740;22.908;2023-11-18T00:55:06;92349.75;;;3.58;84.06
45793;BME280;31495;42.740;22.908;2023-11-18T00:56:06;92377.38;;;3.70;84.38
45793;BME280;31495;42.740;22.908;2023-11-18T00:57:07;92307.81;;;3.24;84.65
45793;BME280;31495;42.740;22.908;2023-11-18T00:58:06;92293.91;;;3.05;84.53
45793;BME280;31495;42.740;22.908;2023-11-18T00:59:06;92300.13;;;2.96;83.74
45793;BME280;31495;42.740;22.908;2023-11-18T01:00:12;92412.59;;;3.67;84.58
45793;BME280;31495;42.740;22.908;2023-11-18T01:01:15;92365.31;;;3.35;84.96
45793;BME280;31495;42.740;22.908;2023-11-18T01:02:16;92357.91;;;3.19;85.45
45793;BME280;31495;42.740;22.908;2023-11-18T01:03:17;92402.25;;;3.54;85.28
45793;BME280;31495;42.740;22.908;2023-11-18T01:04:17;92328.34;;;3.09;85.25
45793;BME280;31495;42.740;22.908;2023-11-18T01:05:17;92343.84;;;3.08;85.41
45793;BME280;31495;42.740;22.908;2023-11-18T01:06:16;92396.47;;;3.45;85.54
45793;BME280;31495;42.740;22.908;2023-11-18T01:07:16;92430.28;;;3.62;85.53
45793;BME280;31495;42.740;22.908;2023-11-18T01:08:16;92428.69;;;3.61;85.10
45793;BME280;31495;42.740;22.908;2023-11-18T01:09:15;92401.72;;;3.37;85.56
45793;BME280;31495;42.740;22.908;2023-11-18T01:10:15;92269.59;;;2.45;85.06
45793;BME280;31495;42.740;22.908;2023-11-18T01:11:18;92431.25;;;3.61;85.17
45793;BME280;31495;42.740;22.908;2023-11-18T01:12:18;92414.94;;;3.41;85.59
45793;BME280;31495;42.740;22.908;2023-11-18T01:13:18;92383.84;;;3.16;85.56
45793;BME280;31495;42.740;22.908;2023-11-18T01:14:17;92385.16;;;3.11;85.59
45793;BME280;31495;42.740;22.908;2023-11-18T01:15:18;92365.59;;;2.97;85.19
45793;BME280;31495;42.740;22.908;2023-11-18T01:16:17;92344.66;;;2.87;85.56
45793;BME280;31495;42.740;22.908;2023-11-18T01:17:18;92339.94;;;2.84;85.90
45793;BME280;31495;42.740;22.908;2023-11-18T01:18:19;92304.06;;;2.55;85.91
45793;BME280;31495;42.740;22.908;2023-11-18T01:19:19;92373.03;;;2.92;85.95
45793;BME280;31495;42.740;22.908;2023-11-18T01:20:19;92419.28;;;3.19;86.65
45793;BME280;31495;42.740;22.908;2023-11-18T01:21:21;92402.47;;;3.09;86.12
45793;BME280;31495;42.740;22.908;2023-11-18T01:22:21;92435.34;;;3.34;85.36
45793;BME280;31495;42.740;22.908;2023-11-18T01:23:20;92421.59;;;3.13;85.03
45793;BME280;31495;42.740;22.908;2023-11-18T01:24:20;92446.91;;;3.30;85.52
45793;BME280;31495;42.740;22.908;2023-11-18T01:25:19;92441.38;;;3.26;85.22
45793;BME280;31495;42.740;22.908;2023-11-18T01:26:19;92382.25;;;2.93;85.29
45793;BME280;31495;42.740;22.908;2023-11-18T01:27:18;92443.13;;;3.26;85.43
45793;BME280;31495;42.740;22.908;2023-11-18T01:28:18;92460.19;;;3.40;85.26
45793;BME280;31495;42.740;22.908;2023-11-18T01:29:18;92396.56;;;2.87;84.26
45793;BME280;31495;42.740;22.908;2023-11-18T01:30:17;92404.94;;;3.03;84.39
45793;BME280;31495;42.740;22.908;2023-11-18T01:31:17;92397.59;;;2.93;85.18
45793;BME280;31495;42.740;22.908;2023-11-18T01:32:17;92443.97;;;3.11;84.17
45793;BME280;31495;42.740;22.908;2023-11-18T01:33:18;92394.91;;;2.80;83.41
45793;BME280;31495;42.740;22.908;2023-11-18T01:34:18;92408.09;;;3.05;83.24
45793;BME280;31495;42.740;22.908;2023-11-18T01:35:20;92372.19;;;2.70;81.72
45793;BME280;31495;42.740;22.908;2023-11-18T01:36:21;92414.44;;;2.87;81.54
45793;BME280;31495;42.740;22.908;2023-11-18T01:37:21;92480.63;;;3.19;80.44
45793;BME280;31495;42.740;22.908;2023-11-18T01:38:21;92310.34;;;2.01;81.29
45793;BME280;31495;42.740;22.908;2023-11-18T01:39:21;92337.59;;;2.31;80.63
45793;BME280;31495;42.740;22.908;2023-11-18T01:40:20;92397.91;;;2.68;80.91
45793;BME280;31495;42.740;22.908;2023-11-18T01:41:20;92395.19;;;2.70;81.08
45793;BME280;31495;42.740;22.908;2023-11-18T01:42:19;92416.69;;;2.75;81.03
45793;BME280;31495;42.740;22.908;2023-11-18T01:43:20;92445.16;;;2.94;80.55
45793;BME280;31495;42.740;22.908;2023-11-18T01:44:21;92465.16;;;3.05;80.65
45793;BME280;31495;42.740;22.908;2023-11-18T01:45:23;92459.78;;;3.00;80.83
45793;BME280;31495;42.740;22.908;2023-11-18T01:46:26;92373.47;;;2.44;81.01
45793;BME280;31495;42.740;22.908;2023-11-18T01:47:27;92421.69;;;2.69;79.71
45793;BME280;31495;42.740;22.908;2023-11-18T01:48:30;92440.69;;;2.81;80.18
45793;BME280;31495;42.740;22.908;2023-11-18T01:49:32;92453.13;;;2.84;80.81
45793;BME280;31495;42.740;22.908;2023-11-18T01:50:37;92451.72;;;2.82;81.20
45793;BME280;31495;42.740;22.908;2023-11-18T01:51:37;92459.53;;;2.80;80.27
45793;BME280;31495;42.740;22.908;2023-11-18T01:52:37;92386.16;;;2.37;80.63
45793;BME280;31495;42.740;22.908;2023-11-18T01:53:37;92413.91;;;2.41;80.56
45793;BME280;31495;42.740;22.908;2023-11-18T01:54:40;92422.97;;;2.43;80.93
45793;BME280;31495;42.740;22.908;2023-11-18T01:55:43;92425.75;;;2.63;81.40
45793;BME280;31495;42.740;22.908;2023-11-18T01:56:46;92399.81;;;2.45;81.80
45793;BME280;31495;42.740;22.908;2023-11-18T01:57:46;92354.63;;;2.09;81.22
45793;BME280;31495;42.740;22.908;2023-11-18T01:58:46;92430.72;;;2.50;81.13
45793;BME280;31495;42.740;22.908;2023-11-18T01:59:46;92361.66;;;2.07;81.62
45793;BME280;31495;42.740;22.908;2023-11-18T02:00:46;92461.00;;;2.68;81.77
45793;BME280;31495;42.740;22.908;2023-11-18T02:01:53;92451.56;;;2.53;80.68
45793;BME280;31495;42.740;22.908;2023-11-18T02:02:53;92473.78;;;2.53;81.27
45793;BME280;31495;42.740;22.908;2023-11-18T02:03:53;92434.94;;;2.28;81.22
45793;BME280;31495;42.740;22.908;2023-11-18T02:04:52;92376.34;;;1.90;81.14
45793;BME280;31495;42.740;22.908;2023-11-18T02:05:51;92460.03;;;2.54;81.93
45793;BME280;31495;42.740;22.908;2023-11-18T02:06:52;92452.38;;;2.39;81.74
45793;BME280;31495;42.740;22.908;2023-11-18T02:07:52;92402.56;;;2.13;81.64
45793;BME280;31495;42.740;22.908;2023-11-18T02:08:51;92461.63;;;2.55;80.91
45793;BME280;31495;42.740;22.908;2023-11-18T02:09:51;92404.97;;;2.15;80.50
45793;BME280;31495;42.740;22.908;2023-11-18T02:11:01;92397.00;;;2.10;80.96
45793;BME280;31495;42.740;22.908;2023-11-18T02:13:24;92425.09;;;2.25;81.56
45793;BME280;31495;42.740;22.908;2023-11-18T02:14:28;92468.03;;;2.51;81.21
45793;BME280;31495;42.740;22.908;2023-11-18T02:15:30;92324.88;;;1.56;80.86
45793;BME280;31495;42.740;22.908;2023-11-18T02:16:31;92454.50;;;2.35;80.89
45793;BME280;31495;42.740;22.908;2023-11-18T02:17:32;92432.75;;;2.10;80.45
45793;BME280;31495;42.740;22.908;2023-11-18T02:18:33;92416.91;;;2.14;80.97
45793;BME280;31495;42.740;22.908;2023-11-18T02:19:35;92375.22;;;1.77;81.35
45793;BME280;31495;42.740;22.908;2023-11-18T02:20:35;92443.94;;;2.24;81.03
45793;BME280;31495;42.740;22.908;2023-11-18T02:21:36;92429.66;;;2.14;81.57
45793;BME280;31495;42.740;22.908;2023-11-18T02:22:37;92443.75;;;2.25;81.89
45793;BME280;31495;42.740;22.908;2023-11-18T02:23:37;92433.63;;;2.17;81.84
45793;BME280;31495;42.740;22.908;2023-11-18T02:24:37;92438.47;;;2.12;82.39
45793;BME280;31495;42.740;22.908;2023-11-18T02:25:43;92421.03;;;2.00;81.65
45793;BME280;31495;42.740;22.908;2023-11-18T02:26:44;92356.72;;;1.60;82.13
45793;BME280;31495;42.740;22.908;2023-11-18T02:27:45;92370.09;;;1.77;82.25
45793;BME280;31495;42.740;22.908;2023-11-18T02:28:45;92392.97;;;1.86;82.18
45793;BME280;31495;42.740;22.908;2023-11-18T02:29:45;92448.94;;;2.17;82.37
45793;BME280;31495;42.740;22.908;2023-11-18T02:30:50;92395.78;;;1.76;82.24
45793;BME280;31495;42.740;22.908;2023-11-18T02:31:52;92440.03;;;2.13;82.58
45793;BME280;31495;42.740;22.908;2023-11-18T02:33:03;92431.78;;;1.96;83.12
45793;BME280;31495;42.740;22.908;2023-11-18T02:34:13;92439.19;;;2.06;83.48
45793;BME280;31495;42.740;22.908;2023-11-18T02:35:23;92444.63;;;2.02;83.41
45793;BME280;31495;42.740;22.908;2023-11-18T02:36:39;92387.00;;;1.40;83.79
45793;BME280;31495;42.740;22.908;2023-11-18T02:37:43;92315.13;;;0.92;84.31
45793;BME280;31495;42.740;22.908;2023-11-18T02:38:47;92422.84;;;1.62;85.12
45793;BME280;31495;42.740;22.908;2023-11-18T02:39:53;92467.81;;;1.78;85.10
45793;BME280;31495;42.740;22.908;2023-11-18T02:40:55;92315.47;;;0.89;85.39
45793;BME280;31495;42.740;22.908;2023-11-18T02:41:57;92410.47;;;1.36;86.41
45793;BME280;31495;42.740;22.908;2023-11-18T02:42:58;92408.75;;;1.51;86.47
45793;BME280;31495;42.740;22.908;2023-11-18T02:43:59;92453.19;;;1.72;86.72
45793;BME280;31495;42.740;22.908;2023-11-18T02:44:59;92443.16;;;1.70;86.99
45793;BME280;31495;42.740;22.908;2023-11-18T02:45:59;92321.50;;;0.88;87.54
45793;BME280;31495;42.740;22.908;2023-11-18T02:46:59;92352.00;;;0.96;87.60
45793;BME280;31495;42.740;22.908;2023-11-18T02:47:59;92471.38;;;1.69;88.12
45793;BME280;31495;42.740;22.908;2023-11-18T02:48:58;92470.22;;;1.56;87.69
45793;BME280;31495;42.740;22.908;2023-11-18T02:49:57;92446.66;;;1.54;88.11
45793;BME280;31495;42.740;22.908;2023-11-18T02:51:05;92447.88;;;1.58;88.41
45793;BME280;31495;42.740;22.908;2023-11-18T02:52:07;92380.81;;;1.20;88.55
45793;BME280;31495;42.740;22.908;2023-11-18T02:53:09;92369.59;;;1.06;88.37
45793;BME280;31495;42.740;22.908;2023-11-18T02:54:08;92385.78;;;1.13;88.67
45793;BME280;31495;42.740;22.908;2023-11-18T02:55:11;92422.00;;;1.46;88.49
45793;BME280;31495;42.740;22.908;2023-11-18T02:56:11;92438.38;;;1.52;88.00
45793;BME280;31495;42.740;22.908;2023-11-18T02:57:10;92399.09;;;1.23;87.54
45793;BME280;31495;42.740;22.908;2023-11-18T02:58:13;92445.41;;;1.50;87.30
45793;BME280;31495;42.740;22.908;2023-11-18T02:59:12;92452.28;;;1.50;87.37
45793;BME280;31495;42.740;22.908;2023-11-18T03:00:12;92430.41;;;1.32;87.53
45793;BME280;31495;42.740;22.908;2023-11-18T03:01:17;92453.56;;;1.45;86.79
45793;BME280;31495;42.740;22.908;2023-11-18T03:02:18;92442.41;;;1.46;87.24
45793;BME280;31495;42.740;22.908;2023-11-18T03:03:20;92431.50;;;1.38;87.64
45793;BME280;31495;42.740;22.908;2023-11-18T03:04:20;92367.13;;;0.98;87.65
45793;BME280;31495;42.740;22.908;2023-11-18T03:05:20;92444.63;;;1.50;87.79
45793;BME280;31495;42.740;22.908;2023-11-18T03:06:20;92323.72;;;0.68;87.76
45793;BME280;31495;42.740;22.908;2023-11-18T03:07:20;92437.88;;;1.34;87.64
45793;BME280;31495;42.740;22.908;2023-11-18T03:08:20;92382.56;;;0.96;87.42
45793;BME280;31495;42.740;22.908;2023-11-18T03:09:19;92416.50;;;1.20;88.17
45793;BME280;31495;42.740;22.908;2023-11-18T03:10:20;92438.56;;;1.27;88.12
45793;BME280;31495;42.740;22.908;2023-11-18T03:11:20;92383.25;;;0.90;88.34
45793;BME280;31495;42.740;22.908;2023-11-18T03:12:19;92457.09;;;1.44;88.52
45793;BME280;31495;42.740;22.908;2023-11-18T03:13:19;92448.69;;;1.36;88.14
45793;BME280;31495;42.740;22.908;2023-11-18T03:14:19;92440.72;;;1.39;88.38
45793;BME280;31495;42.740;22.908;2023-11-18T03:15:19;92378.31;;;0.88;87.59
45793;BME280;31495;42.740;22.908;2023-11-18T03:16:19;92458.50;;;1.47;88.41
45793;BME280;31495;42.740;22.908;2023-11-18T03:17:18;92325.00;;;0.64;88.22
45793;BME280;31495;42.740;22.908;2023-11-18T03:18:19;92457.53;;;1.48;88.31
45793;BME280;31495;42.740;22.908;2023-11-18T03:19:19;92436.25;;;1.18;88.30
45793;BME280;31495;42.740;22.908;2023-11-18T03:20:20;92318.78;;;0.43;88.60
45793;BME280;31495;42.740;22.908;2023-11-18T03:21:19;92443.31;;;1.31;88.83
45793;BME280;31495;42.740;22.908;2023-11-18T03:22:19;92469.25;;;1.34;88.62
45793;BME280;31495;42.740;22.908;2023-11-18T03:23:18;92410.69;;;1.03;88.52
45793;BME280;31495;42.740;22.908;2023-11-18T03:24:18;92472.44;;;1.36;88.33
45793;BME280;31495;42.740;22.908;2023-11-18T03:25:18;92424.59;;;1.00;87.56
45793;BME280;31495;42.740;22.908;2023-11-18T03:26:19;92482.63;;;1.36;87.01
45793;BME280;31495;42.740;22.908;2023-11-18T03:27:18;92439.94;;;1.15;86.30
45793;BME280;31495;42.740;22.908;2023-11-18T03:28:17;92485.13;;;1.44;85.94
45793;BME280;31495;42.740;22.908;2023-11-18T03:29:17;92477.38;;;1.38;84.47
45793;BME280;31495;42.740;22.908;2023-11-18T03:30:16;92441.59;;;1.23;84.20
45793;BME280;31495;42.740;22.908;2023-11-18T03:31:16;92453.84;;;1.27;83.82
45793;BME280;31495;42.740;22.908;2023-11-18T03:32:16;92455.16;;;1.23;83.64
45793;BME280;31495;42.740;22.908;2023-11-18T03:33:15;92456.63;;;1.18;83.48
45793;BME280;31495;42.740;22.908;2023-11-18T03:34:18;92448.47;;;1.22;83.37
45793;BME280;31495;42.740;22.908;2023-11-18T03:35:21;92406.97;;;0.90;83.75
45793;BME280;31495;42.740;22.908;2023-11-18T03:36:20;92488.81;;;1.42;83.93
45793;BME280;31495;42.740;22.908;2023-11-18T03:37:20;92486.91;;;1.59;83.73
45793;BME280;31495;42.740;22.908;2023-11-18T03:38:22;92498.03;;;1.66;82.92
45793;BME280;31495;42.740;22.908;2023-11-18T03:39:23;92456.84;;;1.31;82.50
45793;BME280;31495;42.740;22.908;2023-11-18T03:40:22;92491.84;;;1.60;82.39
45793;BME280;31495;42.740;22.908;2023-11-18T03:41:22;92443.44;;;1.14;82.76
45793;BME280;31495;42.740;22.908;2023-11-18T03:42:23;92432.13;;;0.94;82.68
45793;BME280;31495;42.740;22.908;2023-11-18T03:43:22;92426.66;;;0.97;82.06
45793;BME280;31495;42.740;22.908;2023-11-18T03:44:22;92514.25;;;1.50;82.21
45793;BME280;31495;42.740;22.908;2023-11-18T03:45:23;92458.84;;;1.21;82.28
45793;BME280;31495;42.740;22.908;2023-11-18T03:46:22;92427.97;;;0.93;82.18
45793;BME280;31495;42.740;22.908;2023-11-18T03:47:21;92494.97;;;1.47;82.96
45793;BME280;31495;42.740;22.908;2023-11-18T03:48:23;92509.69;;;1.60;83.09
45793;BME280;31495;42.740;22.908;2023-11-18T03:49:23;92465.41;;;1.38;83.05
45793;BME280;31495;42.740;22.908;2023-11-18T03:50:22;92498.47;;;1.70;82.62
45793;BME280;31495;42.740;22.908;2023-11-18T03:51:22;92441.44;;;1.24;82.61
45793;BME280;31495;42.740;22.908;2023-11-18T03:52:21;92478.00;;;1.40;82.84
45793;BME280;31495;42.740;22.908;2023-11-18T03:53:21;92513.22;;;1.59;83.36
45793;BME280;31495;42.740;22.908;2023-11-18T03:54:20;92430.41;;;1.09;83.23
45793;BME280;31495;42.740;22.908;2023-11-18T03:55:19;92440.56;;;1.17;82.83
45793;BME280;31495;42.740;22.908;2023-11-18T03:56:20;92451.03;;;1.22;83.33
45793;BME280;31495;42.740;22.908;2023-11-18T03:57:19;92417.72;;;1.01;82.95
45793;BME280;31495;42.740;22.908;2023-11-18T03:58:19;92506.59;;;1.50;83.12
45793;BME280;31495;42.740;22.908;2023-11-18T03:59:18;92349.44;;;0.50;83.71
45793;BME280;31495;42.740;22.908;2023-11-18T04:00:18;92491.53;;;1.40;84.45
45793;BME280;31495;42.740;22.908;2023-11-18T04:01:22;92438.66;;;1.11;84.41
45793;BME280;31495;42.740;22.908;2023-11-18T04:02:22;92443.88;;;1.18;85.29
45793;BME280;31495;42.740;22.908;2023-11-18T04:03:21;92415.34;;;0.99;85.58
45793;BME280;31495;42.740;22.908;2023-11-18T04:04:21;92492.19;;;1.57;86.07
45793;BME280;31495;42.740;22.908;2023-11-18T04:05:20;92509.09;;;1.58;85.00
45793;BME280;31495;42.740;22.908;2023-11-18T04:06:23;92521.78;;;1.67;84.52
45793;BME280;31495;42.740;22.908;2023-11-18T04:07:23;92452.34;;;1.18;82.35
45793;BME280;31495;42.740;22.908;2023-11-18T04:08:23;92446.72;;;1.23;82.49
45793;BME280;31495;42.740;22.908;2023-11-18T04:09:22;92499.22;;;1.55;82.06
45793;BME280;31495;42.740;22.908;2023-11-18T04:10:22;92519.34;;;1.50;81.94
45793;BME280;31495;42.740;22.908;2023-11-18T04:11:22;92503.16;;;1.43;82.19
45793;BME280;31495;42.740;22.908;2023-11-18T04:12:21;92499.28;;;1.47;82.51
45793;BME280;31495;42.740;22.908;2023-11-18T04:13:20;92504.72;;;1.44;82.96
45793;BME280;31495;42.740;22.908;2023-11-18T04:14:20;92484.25;;;1.52;82.27
45793;BME280;31495;42.740;22.908;2023-11-18T04:15:20;92425.94;;;1.11;82.24
45793;BME280;31495;42.740;22.908;2023-11-18T04:16:20;92420.06;;;1.10;82.11
45793;BME280;31495;42.740;22.908;2023-11-18T04:17:19;92483.97;;;1.47;81.52
45793;BME280;31495;42.740;22.908;2023-11-18T04:18:19;92414.72;;;0.97;81.74
45793;BME280;31495;42.740;22.908;2023-11-18T04:19:18;92410.16;;;0.93;81.53
45793;BME280;31495;42.740;22.908;2023-11-18T04:20:18;92459.75;;;1.28;81.76
45793;BME280;31495;42.740;22.908;2023-11-18T04:21:18;92440.56;;;1.17;82.47
45793;BME280;31495;42.740;22.908;2023-11-18T04:22:19;92444.22;;;1.15;82.70
45793;BME280;31495;42.740;22.908;2023-11-18T04:23:19;92422.81;;;1.01;82.29
45793;BME280;31495;42.740;22.908;2023-11-18T04:24:19;92512.75;;;1.56;82.22
45793;BME280;31495;42.740;22.908;2023-11-18T04:25:19;92524.03;;;1.38;82.14
45793;BME280;31495;42.740;22.908;2023-11-18T04:26:19;92474.06;;;1.06;82.46
45793;BME280;31495;42.740;22.908;2023-11-18T04:27:19;92444.91;;;0.85;82.48
45793;BME280;31495;42.740;22.908;2023-11-18T04:28:19;92514.50;;;1.32;83.22
45793;BME280;31495;42.740;22.908;2023-11-18T04:29:19;92420.03;;;0.64;82.88
45793;BME280;31495;42.740;22.908;2023-11-18T04:30:20;92469.97;;;0.97;82.92
45793;BME280;31495;42.740;22.908;2023-11-18T04:31:20;92407.63;;;0.61;83.41
45793;BME280;31495;42.740;22.908;2023-11-18T04:32:21;92474.19;;;1.13;82.75
45793;BME280;31495;42.740;22.908;2023-11-18T04:33:21;92447.19;;;1.03;83.21
45793;BME280;31495;42.740;22.908;2023-11-18T04:34:20;92468.19;;;1.28;83.07
45793;BME280;31495;42.740;22.908;2023-11-18T04:35:20;92409.34;;;0.92;83.49
45793;BME280;31495;42.740;22.908;2023-11-18T04:36:21;92428.97;;;0.83;83.05
45793;BME280;31495;42.740;22.908;2023-11-18T04:37:21;92468.50;;;1.02;83.84
45793;BME280;31495;42.740;22.908;2023-11-18T04:38:20;92506.75;;;1.25;84.06
45793;BME280;31495;42.740;22.908;2023-11-18T04:39:20;92513.91;;;1.30;83.89
45793;BME280;31495;42.740;22.908;2023-11-18T04:40:21;92453.16;;;0.87;82.11
45793;BME280;31495;42.740;22.908;2023-11-18T04:41:22;92300.78;;;-0.10;81.94
45793;BME280;31495;42.740;22.908;2023-11-18T04:42:22;92438.59;;;0.73;81.46
45793;BME280;31495;42.740;22.908;2023-11-18T04:43:22;92439.53;;;0.72;82.31
45793;BME280;31495;42.740;22.908;2023-11-18T04:44:23;92502.66;;;1.16;82.05
45793;BME280;31495;42.740;22.908;2023-11-18T04:45:22;92421.72;;;0.72;82.00
45793;BME280;31495;42.740;22.908;2023-11-18T04:46:21;92490.25;;;1.13;81.68
45793;BME280;31495;42.740;22.908;2023-11-18T04:47:21;92508.47;;;1.33;81.74
45793;BME280;31495;42.740;22.908;2023-11-18T04:48:21;92482.75;;;1.20;81.69
45793;BME280;31495;42.740;22.908;2023-11-18T04:49:20;92485.53;;;1.33;81.69
45793;BME280;31495;42.740;22.908;2023-11-18T04:50:21;92468.56;;;1.17;81.44
45793;BME280;31495;42.740;22.908;2023-11-18T04:51:21;92455.38;;;1.14;80.19
45793;BME280;31495;42.740;22.908;2023-11-18T04:52:21;92491.56;;;1.32;80.72
45793;BME280;31495;42.740;22.908;2023-11-18T04:53:21;92485.88;;;1.30;80.83
45793;BME280;31495;42.740;22.908;2023-11-18T04:54:21;92465.06;;;1.18;80.29
45793;BME280;31495;42.740;22.908;2023-11-18T04:55:22;92459.34;;;1.16;80.13
45793;BME280;31495;42.740;22.908;2023-11-18T04:56:22;92337.28;;;0.37;79.99
45793;BME280;31495;42.740;22.908;2023-11-18T04:57:21;92469.03;;;1.21;79.40
45793;BME280;31495;42.740;22.908;2023-11-18T04:58:22;92477.13;;;1.24;79.70
45793;BME280;31495;42.740;22.908;2023-11-18T04:59:22;92425.25;;;0.94;79.61
45793;BME280;31495;42.740;22.908;2023-11-18T05:00:22;92395.41;;;0.80;79.84
45793;BME280;31495;42.740;22.908;2023-11-18T05:01:22;92462.59;;;1.10;80.10
45793;BME280;31495;42.740;22.908;2023-11-18T05:02:22;92477.78;;;1.26;80.46
45793;BME280;31495;42.740;22.908;2023-11-18T05:03:21;92482.69;;;1.28;80.88
45793;BME280;31495;42.740;22.908;2023-11-18T05:04:22;92470.78;;;1.20;80.74
45793;BME280;31495;42.740;22.908;2023-11-18T05:05:22;92478.59;;;1.19;80.96
45793;BME280;31495;42.740;22.908;2023-11-18T05:06:22;92418.84;;;0.75;80.89
45793;BME280;31495;42.740;22.908;2023-11-18T05:07:22;92411.47;;;0.80;81.17
45793;BME280;31495;42.740;22.908;2023-11-18T05:08:22;92469.81;;;1.21;80.28
45793;BME280;31495;42.740;22.908;2023-11-18T05:09:23;92470.47;;;1.23;80.68
45793;BME280;31495;42.740;22.908;2023-11-18T05:10:23;92453.06;;;1.04;80.66
45793;BME280;31495;42.740;22.908;2023-11-18T05:11:23;92478.81;;;1.09;80.03
45793;BME280;31495;42.740;22.908;2023-11-18T05:12:23;92454.38;;;0.91;80.29
45793;BME280;31495;42.740;22.908;2023-11-18T05:13:23;92450.50;;;0.81;80.92
45793;BME280;31495;42.740;22.908;2023-11-18T05:14:23;92479.47;;;1.03;81.46
45793;BME280;31495;42.740;22.908;2023-11-18T05:15:23;92460.56;;;0.74;80.85
45793;BME280;31495;42.740;22.908;2023-11-18T05:16:26;92420.88;;;0.48;81.63
45793;BME280;31495;42.740;22.908;2023-11-18T05:17:26;92460.06;;;0.70;81.94
45793;BME280;31495;42.740;22.908;2023-11-18T05:18:25;92384.84;;;0.36;82.21
45793;BME280;31495;42.740;22.908;2023-11-18T05:19:28;92471.03;;;0.79;81.61
45793;BME280;31495;42.740;22.908;2023-11-18T05:20:28;92409.34;;;0.29;82.07
45793;BME280;31495;42.740;22.908;2023-11-18T05:21:27;92466.31;;;0.68;81.56
45793;BME280;31495;42.740;22.908;2023-11-18T05:22:26;92447.09;;;0.57;81.85